sensor_id;sensor_type;location;lat;lon;timestamp;P1;durP1;ratioP1;P2;durP2;ratioP2
28343;SDS011;15597;50.914;6.638;2023-07-22T00:01:06;5.80;;;3.03;;
28343;SDS011;15597;50.914;6.638;2023-07-22T00:03:31;7.10;;;3.50;;
28343;SDS011;15597;50.914;6.638;2023-07-22T00:06:04;5.75;;;2.97;;
28343;SDS011;15597;50.914;6.638;2023-07-22T00:08:35;6.93;;;3.60;;
28343;SDS011;15597;50.914;6.638;2023-07-22T00:11:02;5.18;;;2.80;;
28343;SDS011;15597;50.914;6.638;2023-07-22T00:13:28;5.95;;;3.20;;
28343;SDS011;15597;50.914;6.638;2023-07-22T00:15:54;8.60;;;3.70;;
28343;SDS011;15597;50.914;6.638;2023-07-22T00:18:20;6.07;;;3.20;;
28343;SDS011;15597;50.914;6.638;2023-07-22T00:20:46;5.82;;;3.10;;
28343;SDS011;15597;50.914;6.638;2023-07-22T00:23:11;5.38;;;2.78;;
28343;SDS011;15597;50.914;6.638;2023-07-22T00:25:37;6.47;;;3.00;;
28343;SDS011;15597;50.914;6.638;2023-07-22T00:28:03;7.22;;;3.20;;
28343;SDS011;15597;50.914;6.638;2023-07-22T00:30:29;5.70;;;2.90;;
28343;SDS011;15597;50.914;6.638;2023-07-22T00:32:56;4.90;;;2.50;;
28343;SDS011;15597;50.914;6.638;2023-07-22T00:35:22;8.70;;;2.97;;
28343;SDS011;15597;50.914;6.638;2023-07-22T00:37:49;5.47;;;3.05;;
28343;SDS011;15597;50.914;6.638;2023-07-22T00:40:16;6.10;;;3.20;;
28343;SDS011;15597;50.914;6.638;2023-07-22T00:45:11;8.20;;;3.70;;
28343;SDS011;15597;50.914;6.638;2023-07-22T00:47:38;5.53;;;2.80;;
28343;SDS011;15597;50.914;6.638;2023-07-22T00:50:06;7.80;;;3.55;;
28343;SDS011;15597;50.914;6.638;2023-07-22T00:52:33;9.18;;;3.65;;
28343;SDS011;15597;50.914;6.638;2023-07-22T00:55:00;9.05;;;3.90;;
28343;SDS011;15597;50.914;6.638;2023-07-22T00:57:29;8.02;;;4.28;;
28343;SDS011;15597;50.914;6.638;2023-07-22T00:59:55;8.55;;;3.53;;
28343;SDS011;15597;50.914;6.638;2023-07-22T01:02:22;13.32;;;4.45;;
28343;SDS011;15597;50.914;6.638;2023-07-22T01:04:51;6.38;;;3.53;;
28343;SDS011;15597;50.914;6.638;2023-07-22T01:07:17;9.73;;;4.10;;
28343;SDS011;15597;50.914;6.638;2023-07-22T01:09:43;11.90;;;4.07;;
28343;SDS011;15597;50.914;6.638;2023-07-22T01:12:13;7.93;;;3.72;;
28343;SDS011;15597;50.914;6.638;2023-07-22T01:14:41;8.40;;;4.18;;
28343;SDS011;15597;50.914;6.638;2023-07-22T01:22:02;6.07;;;3.33;;
28343;SDS011;15597;50.914;6.638;2023-07-22T01:24:32;6.30;;;3.40;;
28343;SDS011;15597;50.914;6.638;2023-07-22T01:26:59;7.78;;;4.40;;
28343;SDS011;15597;50.914;6.638;2023-07-22T01:29:27;7.60;;;3.90;;
28343;SDS011;15597;50.914;6.638;2023-07-22T01:31:55;9.73;;;4.40;;
28343;SDS011;15597;50.914;6.638;2023-07-22T01:34:22;8.80;;;4.65;;
28343;SDS011;15597;50.914;6.638;2023-07-22T01:36:51;6.03;;;3.60;;
28343;SDS011;15597;50.914;6.638;2023-07-22T01:39:18;8.27;;;4.15;;
28343;SDS011;15597;50.914;6.638;2023-07-22T01:41:44;7.65;;;4.22;;
28343;SDS011;15597;50.914;6.638;2023-07-22T01:44:11;9.00;;;4.47;;
28343;SDS011;15597;50.914;6.638;2023-07-22T01:46:37;7.65;;;4.32;;
28343;SDS011;15597;50.914;6.638;2023-07-22T01:49:04;7.47;;;4.00;;
28343;SDS011;15597;50.914;6.638;2023-07-22T01:51:39;8.07;;;3.90;;
28343;SDS011;15597;50.914;6.638;2023-07-22T01:54:09;8.15;;;4.55;;
28343;SDS011;15597;50.914;6.638;2023-07-22T01:56:36;8.88;;;4.15;;
28343;SDS011;15597;50.914;6.638;2023-07-22T01:59:05;6.55;;;3.70;;
28343;SDS011;15597;50.914;6.638;2023-07-22T02:01:35;9.98;;;4.22;;
28343;SDS011;15597;50.914;6.638;2023-07-22T02:06:29;8.75;;;3.40;;
28343;SDS011;15597;50.914;6.638;2023-07-22T02:08:56;9.52;;;3.75;;
28343;SDS011;15597;50.914;6.638;2023-07-22T02:11:23;6.00;;;3.42;;
28343;SDS011;15597;50.914;6.638;2023-07-22T02:13:51;8.65;;;3.28;;
28343;SDS011;15597;50.914;6.638;2023-07-22T02:16:17;7.07;;;3.30;;
28343;SDS011;15597;50.914;6.638;2023-07-22T02:18:45;7.20;;;4.18;;
28343;SDS011;15597;50.914;6.638;2023-07-22T02:21:12;5.90;;;3.20;;
28343;SDS011;15597;50.914;6.638;2023-07-22T02:23:38;4.55;;;2.40;;
28343;SDS011;15597;50.914;6.638;2023-07-22T02:26:04;8.18;;;4.05;;
28343;SDS011;15597;50.914;6.638;2023-07-22T02:28:32;8.43;;;4.32;;
28343;SDS011;15597;50.914;6.638;2023-07-22T02:31:04;7.68;;;3.78;;
28343;SDS011;15597;50.914;6.638;2023-07-22T02:33:37;5.43;;;3.22;;
28343;SDS011;15597;50.914;6.638;2023-07-22T02:36:05;6.85;;;3.53;;
28343;SDS011;15597;50.914;6.638;2023-07-22T02:38:32;7.28;;;3.10;;
28343;SDS011;15597;50.914;6.638;2023-07-22T02:41:02;6.95;;;3.50;;
28343;SDS011;15597;50.914;6.638;2023-07-22T02:43:32;5.72;;;3.08;;
28343;SDS011;15597;50.914;6.638;2023-07-22T02:46:00;6.90;;;3.75;;
28343;SDS011;15597;50.914;6.638;2023-07-22T02:48:27;7.22;;;3.42;;
28343;SDS011;15597;50.914;6.638;2023-07-22T02:50:53;7.38;;;3.08;;
28343;SDS011;15597;50.914;6.638;2023-07-22T02:53:19;6.40;;;2.90;;
28343;SDS011;15597;50.914;6.638;2023-07-22T02:55:45;6.10;;;3.38;;
28343;SDS011;15597;50.914;6.638;2023-07-22T02:58:11;7.65;;;3.80;;
28343;SDS011;15597;50.914;6.638;2023-07-22T03:00:39;6.53;;;3.20;;
28343;SDS011;15597;50.914;6.638;2023-07-22T03:03:05;5.72;;;3.22;;
28343;SDS011;15597;50.914;6.638;2023-07-22T03:05:31;6.50;;;3.45;;
28343;SDS011;15597;50.914;6.638;2023-07-22T03:07:57;7.10;;;3.80;;
28343;SDS011;15597;50.914;6.638;2023-07-22T03:10:24;7.13;;;3.20;;
28343;SDS011;15597;50.914;6.638;2023-07-22T03:12:55;7.15;;;3.60;;
28343;SDS011;15597;50.914;6.638;2023-07-22T03:15:21;6.93;;;3.50;;
28343;SDS011;15597;50.914;6.638;2023-07-22T03:17:47;6.80;;;3.60;;
28343;SDS011;15597;50.914;6.638;2023-07-22T03:20:14;7.05;;;3.50;;
28343;SDS011;15597;50.914;6.638;2023-07-22T03:22:41;5.78;;;3.22;;
28343;SDS011;15597;50.914;6.638;2023-07-22T03:25:11;7.72;;;3.75;;
28343;SDS011;15597;50.914;6.638;2023-07-22T03:27:38;6.65;;;3.92;;
28343;SDS011;15597;50.914;6.638;2023-07-22T03:30:04;6.60;;;3.63;;
28343;SDS011;15597;50.914;6.638;2023-07-22T03:32:40;5.80;;;3.15;;
28343;SDS011;15597;50.914;6.638;2023-07-22T03:35:07;7.20;;;3.95;;
28343;SDS011;15597;50.914;6.638;2023-07-22T03:37:34;9.73;;;3.95;;
28343;SDS011;15597;50.914;6.638;2023-07-22T03:40:02;7.43;;;4.03;;
28343;SDS011;15597;50.914;6.638;2023-07-22T03:42:32;9.00;;;4.00;;
28343;SDS011;15597;50.914;6.638;2023-07-22T03:44:58;7.25;;;3.97;;
28343;SDS011;15597;50.914;6.638;2023-07-22T03:47:23;6.32;;;3.40;;
28343;SDS011;15597;50.914;6.638;2023-07-22T03:49:49;9.32;;;3.97;;
28343;SDS011;15597;50.914;6.638;2023-07-22T03:52:14;8.27;;;3.58;;
28343;SDS011;15597;50.914;6.638;2023-07-22T03:54:43;7.95;;;3.97;;
28343;SDS011;15597;50.914;6.638;2023-07-22T03:57:10;8.25;;;4.10;;
28343;SDS011;15597;50.914;6.638;2023-07-22T03:59:38;7.82;;;3.92;;
28343;SDS011;15597;50.914;6.638;2023-07-22T04:02:06;7.18;;;3.53;;
28343;SDS011;15597;50.914;6.638;2023-07-22T04:04:33;6.85;;;3.15;;
28343;SDS011;15597;50.914;6.638;2023-07-22T04:07:02;7.00;;;4.00;;
28343;SDS011;15597;50.914;6.638;2023-07-22T04:09:29;5.40;;;3.05;;
28343;SDS011;15597;50.914;6.638;2023-07-22T04:11:56;6.05;;;3.25;;
28343;SDS011;15597;50.914;6.638;2023-07-22T04:14:22;8.18;;;3.67;;
28343;SDS011;15597;50.914;6.638;2023-07-22T04:16:50;7.45;;;3.47;;
28343;SDS011;15597;50.914;6.638;2023-07-22T04:19:16;8.88;;;3.72;;
28343;SDS011;15597;50.914;6.638;2023-07-22T04:21:42;7.32;;;4.00;;
28343;SDS011;15597;50.914;6.638;2023-07-22T04:24:12;6.88;;;3.83;;
28343;SDS011;15597;50.914;6.638;2023-07-22T04:26:38;7.88;;;4.00;;
28343;SDS011;15597;50.914;6.638;2023-07-22T04:29:06;9.13;;;4.05;;
28343;SDS011;15597;50.914;6.638;2023-07-22T04:31:36;9.32;;;4.30;;
28343;SDS011;15597;50.914;6.638;2023-07-22T04:34:04;7.97;;;3.55;;
28343;SDS011;15597;50.914;6.638;2023-07-22T04:36:31;7.25;;;3.72;;
28343;SDS011;15597;50.914;6.638;2023-07-22T04:39:01;8.38;;;3.95;;
28343;SDS011;15597;50.914;6.638;2023-07-22T04:41:31;8.02;;;3.85;;
28343;SDS011;15597;50.914;6.638;2023-07-22T04:43:57;7.55;;;4.00;;
28343;SDS011;15597;50.914;6.638;2023-07-22T04:46:30;8.82;;;3.78;;
28343;SDS011;15597;50.914;6.638;2023-07-22T04:49:02;5.82;;;3.22;;
28343;SDS011;15597;50.914;6.638;2023-07-22T04:51:31;8.15;;;3.78;;
28343;SDS011;15597;50.914;6.638;2023-07-22T04:54:01;13.90;;;3.78;;
28343;SDS011;15597;50.914;6.638;2023-07-22T04:56:28;6.35;;;2.83;;
28343;SDS011;15597;50.914;6.638;2023-07-22T04:58:56;7.55;;;4.00;;
28343;SDS011;15597;50.914;6.638;2023-07-22T05:01:25;7.15;;;3.78;;
28343;SDS011;15597;50.914;6.638;2023-07-22T05:03:59;6.40;;;2.88;;
28343;SDS011;15597;50.914;6.638;2023-07-22T05:06:28;7.43;;;3.85;;
28343;SDS011;15597;50.914;6.638;2023-07-22T05:08:55;8.20;;;4.35;;
28343;SDS011;15597;50.914;6.638;2023-07-22T05:11:26;7.38;;;3.78;;
28343;SDS011;15597;50.914;6.638;2023-07-22T05:13:56;5.60;;;2.85;;
28343;SDS011;15597;50.914;6.638;2023-07-22T05:16:21;9.63;;;3.90;;
28343;SDS011;15597;50.914;6.638;2023-07-22T05:18:49;8.27;;;3.92;;
28343;SDS011;15597;50.914;6.638;2023-07-22T05:21:15;8.50;;;4.35;;
28343;SDS011;15597;50.914;6.638;2023-07-22T05:23:46;6.03;;;3.00;;
28343;SDS011;15597;50.914;6.638;2023-07-22T05:26:14;6.03;;;2.95;;
28343;SDS011;15597;50.914;6.638;2023-07-22T05:28:42;5.95;;;3.45;;
28343;SDS011;15597;50.914;6.638;2023-07-22T05:31:08;6.50;;;3.25;;
28343;SDS011;15597;50.914;6.638;2023-07-22T05:33:34;6.70;;;3.65;;
28343;SDS011;15597;50.914;6.638;2023-07-22T05:36:02;6.43;;;3.60;;
28343;SDS011;15597;50.914;6.638;2023-07-22T05:38:31;7.22;;;3.90;;
28343;SDS011;15597;50.914;6.638;2023-07-22T05:41:00;7.82;;;4.28;;
28343;SDS011;15597;50.914;6.638;2023-07-22T05:43:28;8.57;;;4.35;;
28343;SDS011;15597;50.914;6.638;2023-07-22T05:45:55;4.22;;;2.42;;
28343;SDS011;15597;50.914;6.638;2023-07-22T05:48:23;7.70;;;3.78;;
28343;SDS011;15597;50.914;6.638;2023-07-22T05:50:50;4.97;;;2.53;;
28343;SDS011;15597;50.914;6.638;2023-07-22T05:53:17;10.73;;;4.57;;
28343;SDS011;15597;50.914;6.638;2023-07-22T05:55:43;4.78;;;2.83;;
28343;SDS011;15597;50.914;6.638;2023-07-22T05:58:17;9.50;;;4.18;;
28343;SDS011;15597;50.914;6.638;2023-07-22T06:00:44;5.28;;;2.80;;
28343;SDS011;15597;50.914;6.638;2023-07-22T06:03:12;10.30;;;4.15;;
28343;SDS011;15597;50.914;6.638;2023-07-22T06:05:38;6.72;;;3.22;;
28343;SDS011;15597;50.914;6.638;2023-07-22T06:08:06;5.72;;;2.70;;
28343;SDS011;15597;50.914;6.638;2023-07-22T06:10:35;6.97;;;3.50;;
28343;SDS011;15597;50.914;6.638;2023-07-22T06:13:05;4.65;;;2.53;;
28343;SDS011;15597;50.914;6.638;2023-07-22T06:15:38;6.07;;;3.20;;
28343;SDS011;15597;50.914;6.638;2023-07-22T06:18:07;4.97;;;2.67;;
28343;SDS011;15597;50.914;6.638;2023-07-22T06:20:34;7.90;;;3.20;;
28343;SDS011;15597;50.914;6.638;2023-07-22T06:23:01;5.45;;;2.75;;
28343;SDS011;15597;50.914;6.638;2023-07-22T06:25:32;4.88;;;2.53;;
28343;SDS011;15597;50.914;6.638;2023-07-22T06:28:01;7.72;;;3.90;;
28343;SDS011;15597;50.914;6.638;2023-07-22T06:30:29;4.78;;;2.42;;
28343;SDS011;15597;50.914;6.638;2023-07-22T06:32:56;5.22;;;2.90;;
28343;SDS011;15597;50.914;6.638;2023-07-22T06:35:25;6.72;;;2.70;;
28343;SDS011;15597;50.914;6.638;2023-07-22T06:37:54;7.00;;;3.92;;
28343;SDS011;15597;50.914;6.638;2023-07-22T06:40:21;6.63;;;3.28;;
28343;SDS011;15597;50.914;6.638;2023-07-22T06:42:47;4.70;;;2.60;;
28343;SDS011;15597;50.914;6.638;2023-07-22T06:45:14;5.20;;;2.58;;
28343;SDS011;15597;50.914;6.638;2023-07-22T06:47:40;7.63;;;4.18;;
28343;SDS011;15597;50.914;6.638;2023-07-22T06:50:06;5.43;;;2.80;;
28343;SDS011;15597;50.914;6.638;2023-07-22T06:52:33;5.63;;;2.60;;
28343;SDS011;15597;50.914;6.638;2023-07-22T06:54:59;8.20;;;3.63;;
28343;SDS011;15597;50.914;6.638;2023-07-22T06:57:25;8.48;;;3.90;;
28343;SDS011;15597;50.914;6.638;2023-07-22T06:59:56;5.13;;;2.72;;
28343;SDS011;15597;50.914;6.638;2023-07-22T07:02:23;6.35;;;3.63;;
28343;SDS011;15597;50.914;6.638;2023-07-22T07:04:51;7.07;;;3.00;;
28343;SDS011;15597;50.914;6.638;2023-07-22T07:07:17;5.45;;;3.03;;
28343;SDS011;15597;50.914;6.638;2023-07-22T07:09:42;5.50;;;2.58;;
28343;SDS011;15597;50.914;6.638;2023-07-22T07:12:08;6.03;;;2.58;;
28343;SDS011;15597;50.914;6.638;2023-07-22T07:14:34;4.88;;;2.63;;
28343;SDS011;15597;50.914;6.638;2023-07-22T07:17:01;5.20;;;2.53;;
28343;SDS011;15597;50.914;6.638;2023-07-22T07:19:27;6.72;;;3.13;;
28343;SDS011;15597;50.914;6.638;2023-07-22T07:21:54;8.10;;;3.65;;
28343;SDS011;15597;50.914;6.638;2023-07-22T07:24:19;7.22;;;3.33;;
28343;SDS011;15597;50.914;6.638;2023-07-22T07:26:45;6.15;;;2.83;;
28343;SDS011;15597;50.914;6.638;2023-07-22T07:29:12;5.75;;;3.00;;
28343;SDS011;15597;50.914;6.638;2023-07-22T07:31:38;5.07;;;2.58;;
28343;SDS011;15597;50.914;6.638;2023-07-22T07:34:03;5.22;;;2.55;;
28343;SDS011;15597;50.914;6.638;2023-07-22T07:36:29;7.30;;;2.72;;
28343;SDS011;15597;50.914;6.638;2023-07-22T07:38:55;4.63;;;2.50;;
28343;SDS011;15597;50.914;6.638;2023-07-22T07:41:20;5.13;;;2.30;;
28343;SDS011;15597;50.914;6.638;2023-07-22T07:43:46;4.85;;;2.53;;
28343;SDS011;15597;50.914;6.638;2023-07-22T07:48:37;4.68;;;2.45;;
28343;SDS011;15597;50.914;6.638;2023-07-22T07:51:03;5.72;;;3.10;;
28343;SDS011;15597;50.914;6.638;2023-07-22T07:53:28;8.05;;;3.47;;
28343;SDS011;15597;50.914;6.638;2023-07-22T07:55:54;7.13;;;3.58;;
28343;SDS011;15597;50.914;6.638;2023-07-22T07:58:19;6.80;;;3.58;;
28343;SDS011;15597;50.914;6.638;2023-07-22T08:00:45;6.57;;;2.92;;
28343;SDS011;15597;50.914;6.638;2023-07-22T08:03:11;5.28;;;2.75;;
28343;SDS011;15597;50.914;6.638;2023-07-22T08:05:36;5.53;;;2.83;;
28343;SDS011;15597;50.914;6.638;2023-07-22T08:08:02;5.03;;;2.85;;
28343;SDS011;15597;50.914;6.638;2023-07-22T08:10:28;5.20;;;2.70;;
28343;SDS011;15597;50.914;6.638;2023-07-22T08:12:54;11.27;;;5.10;;
28343;SDS011;15597;50.914;6.638;2023-07-22T08:15:19;8.20;;;3.55;;
28343;SDS011;15597;50.914;6.638;2023-07-22T08:17:45;6.68;;;3.13;;
28343;SDS011;15597;50.914;6.638;2023-07-22T08:20:10;6.22;;;3.00;;
28343;SDS011;15597;50.914;6.638;2023-07-22T08:22:36;6.32;;;2.92;;
28343;SDS011;15597;50.914;6.638;2023-07-22T08:25:02;7.32;;;3.88;;
28343;SDS011;15597;50.914;6.638;2023-07-22T08:27:28;5.97;;;2.90;;
28343;SDS011;15597;50.914;6.638;2023-07-22T08:29:53;6.22;;;3.20;;
28343;SDS011;15597;50.914;6.638;2023-07-22T08:32:19;5.68;;;3.38;;
28343;SDS011;15597;50.914;6.638;2023-07-22T08:34:45;5.50;;;2.80;;
28343;SDS011;15597;50.914;6.638;2023-07-22T08:37:10;5.65;;;2.63;;
28343;SDS011;15597;50.914;6.638;2023-07-22T08:39:37;6.70;;;3.33;;
28343;SDS011;15597;50.914;6.638;2023-07-22T08:42:03;7.80;;;3.08;;
28343;SDS011;15597;50.914;6.638;2023-07-22T08:44:31;6.03;;;3.30;;
28343;SDS011;15597;50.914;6.638;2023-07-22T08:47:01;7.57;;;3.25;;
28343;SDS011;15597;50.914;6.638;2023-07-22T08:49:29;5.25;;;3.10;;
28343;SDS011;15597;50.914;6.638;2023-07-22T08:51:55;6.70;;;3.35;;
28343;SDS011;15597;50.914;6.638;2023-07-22T08:54:22;7.05;;;3.42;;
28343;SDS011;15597;50.914;6.638;2023-07-22T08:56:49;6.53;;;3.47;;
28343;SDS011;15597;50.914;6.638;2023-07-22T08:59:17;5.55;;;2.70;;
28343;SDS011;15597;50.914;6.638;2023-07-22T09:01:43;7.10;;;3.17;;
28343;SDS011;15597;50.914;6.638;2023-07-22T09:04:10;4.80;;;2.53;;
28343;SDS011;15597;50.914;6.638;2023-07-22T09:06:36;5.75;;;2.72;;
28343;SDS011;15597;50.914;6.638;2023-07-22T09:09:02;6.72;;;2.92;;
28343;SDS011;15597;50.914;6.638;2023-07-22T09:11:33;5.63;;;2.60;;
28343;SDS011;15597;50.914;6.638;2023-07-22T09:13:59;5.85;;;2.92;;
28343;SDS011;15597;50.914;6.638;2023-07-22T09:16:26;6.38;;;2.78;;
28343;SDS011;15597;50.914;6.638;2023-07-22T09:18:57;7.47;;;3.22;;
28343;SDS011;15597;50.914;6.638;2023-07-22T09:21:23;7.70;;;2.70;;
28343;SDS011;15597;50.914;6.638;2023-07-22T09:23:48;6.68;;;2.75;;
28343;SDS011;15597;50.914;6.638;2023-07-22T09:26:15;6.93;;;2.90;;
28343;SDS011;15597;50.914;6.638;2023-07-22T09:28:57;4.50;;;2.35;;
28343;SDS011;15597;50.914;6.638;2023-07-22T09:31:24;5.43;;;2.72;;
28343;SDS011;15597;50.914;6.638;2023-07-22T09:33:50;5.22;;;2.45;;
28343;SDS011;15597;50.914;6.638;2023-07-22T09:36:19;4.88;;;2.25;;
28343;SDS011;15597;50.914;6.638;2023-07-22T09:38:45;5.45;;;2.33;;
28343;SDS011;15597;50.914;6.638;2023-07-22T09:41:27;6.43;;;2.45;;
28343;SDS011;15597;50.914;6.638;2023-07-22T09:43:53;5.57;;;2.25;;
28343;SDS011;15597;50.914;6.638;2023-07-22T09:46:19;5.32;;;2.30;;
28343;SDS011;15597;50.914;6.638;2023-07-22T09:48:46;5.35;;;2.40;;
28343;SDS011;15597;50.914;6.638;2023-07-22T09:51:15;5.47;;;2.60;;
28343;SDS011;15597;50.914;6.638;2023-07-22T09:53:45;5.93;;;2.55;;
28343;SDS011;15597;50.914;6.638;2023-07-22T09:56:11;5.15;;;2.25;;
28343;SDS011;15597;50.914;6.638;2023-07-22T09:58:37;5.05;;;2.30;;
28343;SDS011;15597;50.914;6.638;2023-07-22T10:01:04;4.35;;;2.00;;
28343;SDS011;15597;50.914;6.638;2023-07-22T10:03:31;5.90;;;2.35;;
28343;SDS011;15597;50.914;6.638;2023-07-22T10:05:57;5.22;;;2.08;;
28343;SDS011;15597;50.914;6.638;2023-07-22T10:08:25;4.97;;;2.00;;
28343;SDS011;15597;50.914;6.638;2023-07-22T10:10:55;4.13;;;2.08;;
28343;SDS011;15597;50.914;6.638;2023-07-22T10:13:23;6.63;;;2.08;;
28343;SDS011;15597;50.914;6.638;2023-07-22T10:15:50;5.00;;;2.00;;
28343;SDS011;15597;50.914;6.638;2023-07-22T10:18:15;4.18;;;1.80;;
28343;SDS011;15597;50.914;6.638;2023-07-22T10:20:42;5.05;;;1.88;;
28343;SDS011;15597;50.914;6.638;2023-07-22T10:23:09;5.60;;;1.90;;
28343;SDS011;15597;50.914;6.638;2023-07-22T10:25:39;4.88;;;1.73;;
28343;SDS011;15597;50.914;6.638;2023-07-22T10:28:04;4.55;;;1.85;;
28343;SDS011;15597;50.914;6.638;2023-07-22T10:30:31;4.38;;;2.00;;
28343;SDS011;15597;50.914;6.638;2023-07-22T10:32:57;4.32;;;1.65;;
28343;SDS011;15597;50.914;6.638;2023-07-22T10:38:12;4.75;;;1.90;;
28343;SDS011;15597;50.914;6.638;2023-07-22T10:43:18;7.88;;;1.85;;
28343;SDS011;15597;50.914;6.638;2023-07-22T10:45:50;6.45;;;1.95;;
28343;SDS011;15597;50.914;6.638;2023-07-22T10:48:18;6.85;;;2.17;;
28343;SDS011;15597;50.914;6.638;2023-07-22T10:50:48;4.80;;;1.95;;
28343;SDS011;15597;50.914;6.638;2023-07-22T11:06:32;5.53;;;2.25;;
28343;SDS011;15597;50.914;6.638;2023-07-22T11:08:58;5.22;;;2.00;;
28343;SDS011;15597;50.914;6.638;2023-07-22T11:11:37;4.05;;;1.85;;
28343;SDS011;15597;50.914;6.638;2023-07-22T11:14:17;6.10;;;2.20;;
28343;SDS011;15597;50.914;6.638;2023-07-22T11:16:46;5.18;;;1.92;;
28343;SDS011;15597;50.914;6.638;2023-07-22T11:19:13;6.90;;;1.80;;
28343;SDS011;15597;50.914;6.638;2023-07-22T11:21:40;7.03;;;1.90;;
28343;SDS011;15597;50.914;6.638;2023-07-22T11:24:07;5.95;;;2.15;;
28343;SDS011;15597;50.914;6.638;2023-07-22T11:26:33;4.43;;;2.13;;
28343;SDS011;15597;50.914;6.638;2023-07-22T11:29:02;7.78;;;2.17;;
28343;SDS011;15597;50.914;6.638;2023-07-22T11:31:38;6.20;;;1.98;;
28343;SDS011;15597;50.914;6.638;2023-07-22T11:34:10;9.07;;;1.98;;
28343;SDS011;15597;50.914;6.638;2023-07-22T11:36:40;6.95;;;1.95;;
28343;SDS011;15597;50.914;6.638;2023-07-22T11:41:36;3.83;;;1.88;;
28343;SDS011;15597;50.914;6.638;2023-07-22T11:44:02;6.00;;;1.95;;
28343;SDS011;15597;50.914;6.638;2023-07-22T11:46:35;6.20;;;2.10;;
28343;SDS011;15597;50.914;6.638;2023-07-22T11:49:01;5.50;;;2.05;;
28343;SDS011;15597;50.914;6.638;2023-07-22T11:51:28;6.30;;;1.80;;
28343;SDS011;15597;50.914;6.638;2023-07-22T11:53:54;4.85;;;1.60;;
28343;SDS011;15597;50.914;6.638;2023-07-22T11:56:20;5.40;;;1.92;;
28343;SDS011;15597;50.914;6.638;2023-07-22T11:58:50;4.40;;;1.80;;
28343;SDS011;15597;50.914;6.638;2023-07-22T12:01:17;6.97;;;2.05;;
28343;SDS011;15597;50.914;6.638;2023-07-22T12:03:43;4.20;;;1.70;;
28343;SDS011;15597;50.914;6.638;2023-07-22T12:06:09;4.93;;;1.48;;
28343;SDS011;15597;50.914;6.638;2023-07-22T12:08:36;5.00;;;2.00;;
28343;SDS011;15597;50.914;6.638;2023-07-22T12:11:07;4.20;;;1.70;;
28343;SDS011;15597;50.914;6.638;2023-07-22T12:13:36;5.57;;;1.77;;
28343;SDS011;15597;50.914;6.638;2023-07-22T12:16:03;3.88;;;1.70;;
28343;SDS011;15597;50.914;6.638;2023-07-22T12:18:46;4.32;;;1.83;;
28343;SDS011;15597;50.914;6.638;2023-07-22T12:21:15;3.67;;;1.58;;
28343;SDS011;15597;50.914;6.638;2023-07-22T12:23:41;3.22;;;1.55;;
28343;SDS011;15597;50.914;6.638;2023-07-22T12:26:08;3.88;;;1.70;;
28343;SDS011;15597;50.914;6.638;2023-07-22T12:28:33;4.45;;;1.55;;
28343;SDS011;15597;50.914;6.638;2023-07-22T12:30:59;3.88;;;1.90;;
28343;SDS011;15597;50.914;6.638;2023-07-22T12:33:26;6.10;;;1.50;;
28343;SDS011;15597;50.914;6.638;2023-07-22T12:35:55;4.20;;;1.70;;
28343;SDS011;15597;50.914;6.638;2023-07-22T12:38:22;6.10;;;1.60;;
28343;SDS011;15597;50.914;6.638;2023-07-22T12:40:48;4.97;;;1.73;;
28343;SDS011;15597;50.914;6.638;2023-07-22T12:43:13;4.47;;;1.70;;
28343;SDS011;15597;50.914;6.638;2023-07-22T12:45:39;4.05;;;1.50;;
28343;SDS011;15597;50.914;6.638;2023-07-22T12:48:04;4.00;;;1.60;;
28343;SDS011;15597;50.914;6.638;2023-07-22T12:50:31;4.50;;;1.70;;
28343;SDS011;15597;50.914;6.638;2023-07-22T12:53:00;3.50;;;1.70;;
28343;SDS011;15597;50.914;6.638;2023-07-22T12:55:25;2.97;;;1.50;;
28343;SDS011;15597;50.914;6.638;2023-07-22T12:57:51;5.43;;;1.90;;
28343;SDS011;15597;50.914;6.638;2023-07-22T13:00:17;4.47;;;1.70;;
28343;SDS011;15597;50.914;6.638;2023-07-22T13:02:42;3.33;;;1.60;;
28343;SDS011;15597;50.914;6.638;2023-07-22T13:05:08;9.30;;;1.80;;
28343;SDS011;15597;50.914;6.638;2023-07-22T13:07:34;8.68;;;2.45;;
28343;SDS011;15597;50.914;6.638;2023-07-22T13:10:00;8.23;;;6.15;;
28343;SDS011;15597;50.914;6.638;2023-07-22T13:12:34;7.20;;;3.50;;
28343;SDS011;15597;50.914;6.638;2023-07-22T13:15:00;5.60;;;3.08;;
28343;SDS011;15597;50.914;6.638;2023-07-22T13:17:25;11.07;;;3.78;;
28343;SDS011;15597;50.914;6.638;2023-07-22T13:19:51;4.57;;;2.85;;
28343;SDS011;15597;50.914;6.638;2023-07-22T13:22:17;5.60;;;2.75;;
28343;SDS011;15597;50.914;6.638;2023-07-22T13:24:42;6.07;;;3.42;;
28343;SDS011;15597;50.914;6.638;2023-07-22T13:27:08;5.25;;;2.35;;
28343;SDS011;15597;50.914;6.638;2023-07-22T13:29:33;16.00;;;9.60;;
28343;SDS011;15597;50.914;6.638;2023-07-22T13:31:59;12.63;;;7.45;;
28343;SDS011;15597;50.914;6.638;2023-07-22T13:34:25;20.45;;;12.32;;
28343;SDS011;15597;50.914;6.638;2023-07-22T13:36:50;13.80;;;9.38;;
28343;SDS011;15597;50.914;6.638;2023-07-22T13:39:16;11.05;;;7.38;;
28343;SDS011;15597;50.914;6.638;2023-07-22T13:41:42;10.75;;;6.57;;
28343;SDS011;15597;50.914;6.638;2023-07-22T13:44:07;8.13;;;4.75;;
28343;SDS011;15597;50.914;6.638;2023-07-22T13:46:33;8.73;;;4.22;;
28343;SDS011;15597;50.914;6.638;2023-07-22T13:48:59;7.40;;;4.15;;
28343;SDS011;15597;50.914;6.638;2023-07-22T13:51:24;6.40;;;4.03;;
28343;SDS011;15597;50.914;6.638;2023-07-22T13:53:50;6.82;;;3.60;;
28343;SDS011;15597;50.914;6.638;2023-07-22T13:56:17;6.13;;;3.42;;
28343;SDS011;15597;50.914;6.638;2023-07-22T13:58:43;6.18;;;3.35;;
28343;SDS011;15597;50.914;6.638;2023-07-22T14:01:08;5.40;;;2.60;;
28343;SDS011;15597;50.914;6.638;2023-07-22T14:03:34;8.35;;;3.13;;
28343;SDS011;15597;50.914;6.638;2023-07-22T14:06:00;6.35;;;2.85;;
28343;SDS011;15597;50.914;6.638;2023-07-22T14:08:25;6.25;;;3.50;;
28343;SDS011;15597;50.914;6.638;2023-07-22T14:10:51;5.55;;;2.95;;
28343;SDS011;15597;50.914;6.638;2023-07-22T14:13:16;5.72;;;3.20;;
28343;SDS011;15597;50.914;6.638;2023-07-22T14:15:42;6.22;;;2.63;;
28343;SDS011;15597;50.914;6.638;2023-07-22T14:18:08;5.22;;;3.13;;
28343;SDS011;15597;50.914;6.638;2023-07-22T14:20:33;4.78;;;2.38;;
28343;SDS011;15597;50.914;6.638;2023-07-22T14:22:59;4.93;;;2.70;;
28343;SDS011;15597;50.914;6.638;2023-07-22T14:25:25;6.30;;;2.75;;
28343;SDS011;15597;50.914;6.638;2023-07-22T14:27:50;6.88;;;2.40;;
28343;SDS011;15597;50.914;6.638;2023-07-22T14:30:16;4.85;;;2.70;;
28343;SDS011;15597;50.914;6.638;2023-07-22T14:32:41;5.13;;;2.75;;
28343;SDS011;15597;50.914;6.638;2023-07-22T14:35:08;4.57;;;2.30;;
28343;SDS011;15597;50.914;6.638;2023-07-22T14:37:33;4.45;;;2.28;;
28343;SDS011;15597;50.914;6.638;2023-07-22T14:39:59;5.72;;;2.58;;
28343;SDS011;15597;50.914;6.638;2023-07-22T14:42:24;4.43;;;2.10;;
28343;SDS011;15597;50.914;6.638;2023-07-22T14:44:50;5.93;;;2.55;;
28343;SDS011;15597;50.914;6.638;2023-07-22T14:47:15;7.40;;;2.60;;
28343;SDS011;15597;50.914;6.638;2023-07-22T14:49:41;5.03;;;2.40;;
28343;SDS011;15597;50.914;6.638;2023-07-22T14:52:06;6.07;;;2.58;;
28343;SDS011;15597;50.914;6.638;2023-07-22T14:54:33;5.50;;;2.33;;
28343;SDS011;15597;50.914;6.638;2023-07-22T14:56:58;6.47;;;2.30;;
28343;SDS011;15597;50.914;6.638;2023-07-22T14:59:24;8.77;;;2.30;;
28343;SDS011;15597;50.914;6.638;2023-07-22T15:01:51;6.38;;;2.08;;
28343;SDS011;15597;50.914;6.638;2023-07-22T15:04:18;7.75;;;2.35;;
28343;SDS011;15597;50.914;6.638;2023-07-22T15:06:43;5.97;;;2.30;;
28343;SDS011;15597;50.914;6.638;2023-07-22T15:09:09;8.60;;;2.50;;
28343;SDS011;15597;50.914;6.638;2023-07-22T15:11:36;6.70;;;2.40;;
28343;SDS011;15597;50.914;6.638;2023-07-22T15:14:02;7.13;;;2.40;;
28343;SDS011;15597;50.914;6.638;2023-07-22T15:16:31;6.47;;;2.20;;
28343;SDS011;15597;50.914;6.638;2023-07-22T15:18:57;11.77;;;2.25;;
28343;SDS011;15597;50.914;6.638;2023-07-22T15:21:23;6.07;;;2.33;;